sensor_id;sensor_type;location;lat;lon;timestamp;P1;durP1;ratioP1;P2;durP2;ratioP2
74177;SDS011;62540;48.456;-4.456;2024-02-28T00:03:41;0.25;;;0.00;;
74177;SDS011;62540;48.456;-4.456;2024-02-28T00:06:06;0.00;;;0.00;;
74177;SDS011;62540;48.456;-4.456;2024-02-28T00:08:32;0.75;;;0.00;;
74177;SDS011;62540;48.456;-4.456;2024-02-28T00:10:57;0.75;;;0.50;;
74177;SDS011;62540;48.456;-4.456;2024-02-28T00:13:22;0.50;;;0.00;;
74177;SDS011;62540;48.456;-4.456;2024-02-28T00:15:49;0.00;;;0.00;;
74177;SDS011;62540;48.456;-4.456;2024-02-28T00:18:15;1.75;;;0.75;;
74177;SDS011;62540;48.456;-4.456;2024-02-28T00:20:41;2.00;;;1.25;;
74177;SDS011;62540;48.456;-4.456;2024-02-28T00:23:06;0.75;;;0.75;;
74177;SDS011;62540;48.456;-4.456;2024-02-28T00:25:31;0.75;;;0.00;;
74177;SDS011;62540;48.456;-4.456;2024-02-28T00:27:57;1.00;;;0.00;;
74177;SDS011;62540;48.456;-4.456;2024-02-28T00:30:22;1.75;;;1.25;;
74177;SDS011;62540;48.456;-4.456;2024-02-28T00:32:48;0.50;;;0.00;;
74177;SDS011;62540;48.456;-4.456;2024-02-28T00:35:13;1.00;;;0.00;;
74177;SDS011;62540;48.456;-4.456;2024-02-28T00:37:38;0.00;;;0.00;;
74177;SDS011;62540;48.456;-4.456;2024-02-28T00:40:04;0.00;;;0.00;;
74177;SDS011;62540;48.456;-4.456;2024-02-28T00:42:30;0.50;;;0.00;;
74177;SDS011;62540;48.456;-4.456;2024-02-28T00:44:55;0.00;;;0.00;;
74177;SDS011;62540;48.456;-4.456;2024-02-28T00:47:21;0.00;;;0.00;;
74177;SDS011;62540;48.456;-4.456;2024-02-28T00:49:46;0.50;;;0.00;;
74177;SDS011;62540;48.456;-4.456;2024-02-28T00:52:12;0.00;;;0.00;;
74177;SDS011;62540;48.456;-4.456;2024-02-28T00:54:37;0.00;;;0.00;;
74177;SDS011;62540;48.456;-4.456;2024-02-28T00:57:03;1.00;;;0.75;;
74177;SDS011;62540;48.456;-4.456;2024-02-28T00:59:28;0.50;;;0.00;;
74177;SDS011;62540;48.456;-4.456;2024-02-28T01:01:53;0.00;;;0.00;;
74177;SDS011;62540;48.456;-4.456;2024-02-28T01:04:19;0.00;;;0.00;;
74177;SDS011;62540;48.456;-4.456;2024-02-28T01:06:44;0.00;;;0.00;;
74177;SDS011;62540;48.456;-4.456;2024-02-28T01:09:10;0.00;;;0.00;;
74177;SDS011;62540;48.456;-4.456;2024-02-28T01:11:35;0.00;;;0.00;;
74177;SDS011;62540;48.456;-4.456;2024-02-28T01:14:00;0.00;;;0.00;;
74177;SDS011;62540;48.456;-4.456;2024-02-28T01:16:26;0.00;;;0.00;;
74177;SDS011;62540;48.456;-4.456;2024-02-28T01:18:52;0.25;;;0.00;;
74177;SDS011;62540;48.456;-4.456;2024-02-28T01:21:18;0.00;;;0.00;;
74177;SDS011;62540;48.456;-4.456;2024-02-28T01:23:44;0.00;;;0.00;;
74177;SDS011;62540;48.456;-4.456;2024-02-28T01:26:09;0.00;;;0.00;;
74177;SDS011;62540;48.456;-4.456;2024-02-28T01:28:35;0.00;;;0.00;;
74177;SDS011;62540;48.456;-4.456;2024-02-28T01:31:00;0.00;;;0.00;;
74177;SDS011;62540;48.456;-4.456;2024-02-28T01:33:26;0.00;;;0.00;;
74177;SDS011;62540;48.456;-4.456;2024-02-28T01:35:51;0.25;;;0.00;;
74177;SDS011;62540;48.456;-4.456;2024-02-28T01:38:17;1.50;;;0.50;;
74177;SDS011;62540;48.456;-4.456;2024-02-28T01:40:45;1.25;;;1.00;;
74177;SDS011;62540;48.456;-4.456;2024-02-28T01:43:11;0.50;;;0.50;;
74177;SDS011;62540;48.456;-4.456;2024-02-28T01:45:37;2.25;;;0.50;;
74177;SDS011;62540;48.456;-4.456;2024-02-28T01:48:03;0.50;;;0.50;;
74177;SDS011;62540;48.456;-4.456;2024-02-28T01:50:30;1.50;;;1.00;;
74177;SDS011;62540;48.456;-4.456;2024-02-28T01:52:57;1.75;;;1.25;;
74177;SDS011;62540;48.456;-4.456;2024-02-28T01:55:22;1.00;;;0.25;;
74177;SDS011;62540;48.456;-4.456;2024-02-28T01:57:48;0.50;;;0.50;;
74177;SDS011;62540;48.456;-4.456;2024-02-28T02:00:13;1.25;;;0.50;;
74177;SDS011;62540;48.456;-4.456;2024-02-28T02:02:41;1.00;;;0.50;;
74177;SDS011;62540;48.456;-4.456;2024-02-28T02:05:08;3.00;;;2.00;;
74177;SDS011;62540;48.456;-4.456;2024-02-28T02:07:34;1.50;;;1.50;;
74177;SDS011;62540;48.456;-4.456;2024-02-28T02:10:00;0.50;;;0.50;;
74177;SDS011;62540;48.456;-4.456;2024-02-28T02:12:26;2.00;;;2.00;;
74177;SDS011;62540;48.456;-4.456;2024-02-28T02:14:51;1.50;;;1.00;;
74177;SDS011;62540;48.456;-4.456;2024-02-28T02:17:17;2.75;;;2.00;;
74177;SDS011;62540;48.456;-4.456;2024-02-28T02:19:42;5.75;;;5.75;;
74177;SDS011;62540;48.456;-4.456;2024-02-28T02:22:08;7.75;;;7.00;;
74177;SDS011;62540;48.456;-4.456;2024-02-28T02:24:35;6.50;;;5.00;;
74177;SDS011;62540;48.456;-4.456;2024-02-28T02:27:02;3.50;;;3.50;;
74177;SDS011;62540;48.456;-4.456;2024-02-28T02:29:30;2.75;;;2.75;;
74177;SDS011;62540;48.456;-4.456;2024-02-28T02:31:55;2.00;;;1.50;;
74177;SDS011;62540;48.456;-4.456;2024-02-28T02:34:21;2.50;;;1.75;;
74177;SDS011;62540;48.456;-4.456;2024-02-28T02:36:46;0.50;;;0.50;;
74177;SDS011;62540;48.456;-4.456;2024-02-28T02:39:11;0.50;;;0.50;;
74177;SDS011;62540;48.456;-4.456;2024-02-28T02:41:37;1.25;;;0.50;;
74177;SDS011;62540;48.456;-4.456;2024-02-28T02:44:02;1.00;;;1.00;;
74177;SDS011;62540;48.456;-4.456;2024-02-28T02:46:28;0.75;;;0.00;;
74177;SDS011;62540;48.456;-4.456;2024-02-28T02:48:53;0.25;;;0.25;;
74177;SDS011;62540;48.456;-4.456;2024-02-28T02:51:19;1.75;;;1.25;;
74177;SDS011;62540;48.456;-4.456;2024-02-28T02:53:46;0.25;;;0.00;;
74177;SDS011;62540;48.456;-4.456;2024-02-28T02:56:11;0.25;;;0.25;;
74177;SDS011;62540;48.456;-4.456;2024-02-28T02:58:37;0.75;;;0.75;;
74177;SDS011;62540;48.456;-4.456;2024-02-28T03:01:02;1.25;;;1.00;;
74177;SDS011;62540;48.456;-4.456;2024-02-28T03:03:28;0.25;;;0.25;;
74177;SDS011;62540;48.456;-4.456;2024-02-28T03:05:53;0.75;;;0.75;;
74177;SDS011;62540;48.456;-4.456;2024-02-28T03:08:19;3.00;;;2.00;;
74177;SDS011;62540;48.456;-4.456;2024-02-28T03:10:44;2.25;;;1.75;;
74177;SDS011;62540;48.456;-4.456;2024-02-28T03:13:09;1.25;;;1.25;;
74177;SDS011;62540;48.456;-4.456;2024-02-28T03:15:35;1.75;;;1.75;;
74177;SDS011;62540;48.456;-4.456;2024-02-28T03:18:00;3.25;;;1.00;;
74177;SDS011;62540;48.456;-4.456;2024-02-28T03:20:26;2.50;;;1.00;;
74177;SDS011;62540;48.456;-4.456;2024-02-28T03:22:52;1.00;;;0.75;;
74177;SDS011;62540;48.456;-4.456;2024-02-28T03:25:17;1.50;;;1.00;;
74177;SDS011;62540;48.456;-4.456;2024-02-28T03:27:42;2.50;;;2.00;;
74177;SDS011;62540;48.456;-4.456;2024-02-28T03:30:08;2.00;;;1.50;;
74177;SDS011;62540;48.456;-4.456;2024-02-28T03:32:33;3.00;;;2.00;;
74177;SDS011;62540;48.456;-4.456;2024-02-28T03:34:59;3.00;;;1.75;;
74177;SDS011;62540;48.456;-4.456;2024-02-28T03:37:25;2.25;;;1.75;;
74177;SDS011;62540;48.456;-4.456;2024-02-28T03:39:51;3.00;;;2.00;;
74177;SDS011;62540;48.456;-4.456;2024-02-28T03:42:16;2.75;;;1.75;;
74177;SDS011;62540;48.456;-4.456;2024-02-28T03:44:41;0.75;;;0.75;;
74177;SDS011;62540;48.456;-4.456;2024-02-28T03:47:07;1.00;;;0.75;;
74177;SDS011;62540;48.456;-4.456;2024-02-28T03:49:32;2.50;;;1.50;;
74177;SDS011;62540;48.456;-4.456;2024-02-28T03:51:57;1.25;;;1.25;;
74177;SDS011;62540;48.456;-4.456;2024-02-28T03:54:23;2.25;;;2.00;;
74177;SDS011;62540;48.456;-4.456;2024-02-28T03:56:48;1.75;;;1.00;;
74177;SDS011;62540;48.456;-4.456;2024-02-28T03:59:14;2.25;;;1.50;;
74177;SDS011;62540;48.456;-4.456;2024-02-28T04:01:39;3.00;;;2.00;;
74177;SDS011;62540;48.456;-4.456;2024-02-28T04:04:04;1.75;;;1.00;;
74177;SDS011;62540;48.456;-4.456;2024-02-28T04:06:30;1.75;;;1.25;;
74177;SDS011;62540;48.456;-4.456;2024-02-28T04:08:55;3.00;;;1.75;;
74177;SDS011;62540;48.456;-4.456;2024-02-28T04:11:21;1.00;;;0.25;;
74177;SDS011;62540;48.456;-4.456;2024-02-28T04:13:46;1.00;;;1.00;;
74177;SDS011;62540;48.456;-4.456;2024-02-28T04:16:12;0.75;;;0.75;;
74177;SDS011;62540;48.456;-4.456;2024-02-28T04:18:37;1.50;;;1.25;;
74177;SDS011;62540;48.456;-4.456;2024-02-28T04:21:02;2.75;;;2.75;;
74177;SDS011;62540;48.456;-4.456;2024-02-28T04:23:28;1.00;;;0.75;;
74177;SDS011;62540;48.456;-4.456;2024-02-28T04:25:53;0.00;;;0.00;;
74177;SDS011;62540;48.456;-4.456;2024-02-28T04:28:19;3.00;;;2.00;;
74177;SDS011;62540;48.456;-4.456;2024-02-28T04:30:45;1.00;;;1.00;;
74177;SDS011;62540;48.456;-4.456;2024-02-28T04:33:10;2.50;;;2.50;;
74177;SDS011;62540;48.456;-4.456;2024-02-28T04:35:36;2.50;;;2.50;;
74177;SDS011;62540;48.456;-4.456;2024-02-28T04:38:01;1.75;;;1.50;;
74177;SDS011;62540;48.456;-4.456;2024-02-28T04:40:26;1.25;;;1.25;;
74177;SDS011;62540;48.456;-4.456;2024-02-28T04:42:52;1.25;;;1.25;;
74177;SDS011;62540;48.456;-4.456;2024-02-28T04:45:17;2.50;;;2.00;;
74177;SDS011;62540;48.456;-4.456;2024-02-28T04:47:43;1.50;;;1.50;;
74177;SDS011;62540;48.456;-4.456;2024-02-28T04:50:09;2.00;;;1.00;;
74177;SDS011;62540;48.456;-4.456;2024-02-28T04:52:34;1.75;;;1.75;;
74177;SDS011;62540;48.456;-4.456;2024-02-28T04:55:00;3.00;;;2.00;;
74177;SDS011;62540;48.456;-4.456;2024-02-28T04:57:26;2.00;;;1.50;;
74177;SDS011;62540;48.456;-4.456;2024-02-28T04:59:52;3.75;;;2.50;;
74177;SDS011;62540;48.456;-4.456;2024-02-28T05:02:17;2.75;;;2.75;;
74177;SDS011;62540;48.456;-4.456;2024-02-28T05:04:43;1.75;;;1.00;;
74177;SDS011;62540;48.456;-4.456;2024-02-28T05:07:08;1.00;;;1.00;;
74177;SDS011;62540;48.456;-4.456;2024-02-28T05:09:34;1.25;;;1.00;;
74177;SDS011;62540;48.456;-4.456;2024-02-28T05:12:00;2.75;;;1.50;;
74177;SDS011;62540;48.456;-4.456;2024-02-28T05:14:26;2.25;;;2.00;;
74177;SDS011;62540;48.456;-4.456;2024-02-28T05:16:51;1.50;;;1.50;;
74177;SDS011;62540;48.456;-4.456;2024-02-28T05:19:16;1.50;;;1.25;;
74177;SDS011;62540;48.456;-4.456;2024-02-28T05:21:45;1.75;;;1.75;;
74177;SDS011;62540;48.456;-4.456;2024-02-28T05:24:11;1.75;;;1.50;;
74177;SDS011;62540;48.456;-4.456;2024-02-28T05:26:36;2.00;;;2.00;;
74177;SDS011;62540;48.456;-4.456;2024-02-28T05:29:03;1.50;;;1.50;;
74177;SDS011;62540;48.456;-4.456;2024-02-28T05:31:30;2.75;;;2.00;;
74177;SDS011;62540;48.456;-4.456;2024-02-28T05:33:59;2.75;;;2.00;;
74177;SDS011;62540;48.456;-4.456;2024-02-28T05:36:29;3.00;;;2.00;;
74177;SDS011;62540;48.456;-4.456;2024-02-28T05:38:55;3.00;;;2.25;;
74177;SDS011;62540;48.456;-4.456;2024-02-28T05:41:21;2.00;;;2.00;;
74177;SDS011;62540;48.456;-4.456;2024-02-28T05:43:47;2.00;;;1.25;;
74177;SDS011;62540;48.456;-4.456;2024-02-28T05:46:14;2.50;;;2.00;;
74177;SDS011;62540;48.456;-4.456;2024-02-28T05:48:40;2.00;;;1.00;;
74177;SDS011;62540;48.456;-4.456;2024-02-28T05:51:06;1.25;;;1.00;;
74177;SDS011;62540;48.456;-4.456;2024-02-28T05:53:31;0.75;;;0.75;;
74177;SDS011;62540;48.456;-4.456;2024-02-28T05:56:00;2.25;;;1.25;;
74177;SDS011;62540;48.456;-4.456;2024-02-28T05:58:42;0.00;;;0.00;;
74177;SDS011;62540;48.456;-4.456;2024-02-28T06:01:10;1.00;;;0.75;;
74177;SDS011;62540;48.456;-4.456;2024-02-28T06:03:36;1.00;;;1.00;;
74177;SDS011;62540;48.456;-4.456;2024-02-28T06:06:02;0.25;;;0.25;;
74177;SDS011;62540;48.456;-4.456;2024-02-28T06:08:31;0.50;;;0.50;;
74177;SDS011;62540;48.456;-4.456;2024-02-28T06:10:59;0.00;;;0.00;;
74177;SDS011;62540;48.456;-4.456;2024-02-28T06:13:25;1.50;;;1.25;;
74177;SDS011;62540;48.456;-4.456;2024-02-28T06:15:52;3.50;;;2.75;;
74177;SDS011;62540;48.456;-4.456;2024-02-28T06:18:17;6.25;;;5.00;;
74177;SDS011;62540;48.456;-4.456;2024-02-28T06:20:42;8.00;;;5.50;;
74177;SDS011;62540;48.456;-4.456;2024-02-28T06:23:08;5.75;;;3.25;;
74177;SDS011;62540;48.456;-4.456;2024-02-28T06:25:33;2.75;;;2.75;;
74177;SDS011;62540;48.456;-4.456;2024-02-28T06:27:59;1.75;;;1.75;;
74177;SDS011;62540;48.456;-4.456;2024-02-28T06:30:27;0.75;;;0.75;;
74177;SDS011;62540;48.456;-4.456;2024-02-28T06:32:52;0.75;;;0.75;;
74177;SDS011;62540;48.456;-4.456;2024-02-28T06:35:17;2.75;;;2.00;;
74177;SDS011;62540;48.456;-4.456;2024-02-28T06:37:43;5.00;;;5.00;;
74177;SDS011;62540;48.456;-4.456;2024-02-28T06:40:14;2.25;;;2.25;;
74177;SDS011;62540;48.456;-4.456;2024-02-28T06:42:40;1.00;;;1.00;;
74177;SDS011;62540;48.456;-4.456;2024-02-28T06:45:05;1.50;;;1.25;;
74177;SDS011;62540;48.456;-4.456;2024-02-28T06:47:32;1.25;;;1.25;;
74177;SDS011;62540;48.456;-4.456;2024-02-28T06:49:58;3.00;;;3.00;;
74177;SDS011;62540;48.456;-4.456;2024-02-28T06:52:23;3.75;;;3.00;;
74177;SDS011;62540;48.456;-4.456;2024-02-28T06:54:49;2.25;;;1.75;;
74177;SDS011;62540;48.456;-4.456;2024-02-28T06:57:14;1.00;;;1.00;;
74177;SDS011;62540;48.456;-4.456;2024-02-28T06:59:39;2.00;;;0.75;;
74177;SDS011;62540;48.456;-4.456;2024-02-28T07:02:05;2.00;;;0.50;;
74177;SDS011;62540;48.456;-4.456;2024-02-28T07:04:30;0.00;;;0.00;;
74177;SDS011;62540;48.456;-4.456;2024-02-28T07:06:56;0.75;;;0.75;;
74177;SDS011;62540;48.456;-4.456;2024-02-28T07:09:22;1.00;;;1.00;;
74177;SDS011;62540;48.456;-4.456;2024-02-28T07:11:50;2.50;;;2.00;;
74177;SDS011;62540;48.456;-4.456;2024-02-28T07:14:16;3.75;;;2.75;;
74177;SDS011;62540;48.456;-4.456;2024-02-28T07:16:41;3.25;;;2.25;;
74177;SDS011;62540;48.456;-4.456;2024-02-28T07:19:07;5.00;;;4.00;;
74177;SDS011;62540;48.456;-4.456;2024-02-28T07:21:32;2.25;;;1.50;;
74177;SDS011;62540;48.456;-4.456;2024-02-28T07:23:58;2.75;;;2.00;;
74177;SDS011;62540;48.456;-4.456;2024-02-28T07:26:23;3.75;;;2.25;;
74177;SDS011;62540;48.456;-4.456;2024-02-28T07:28:49;1.75;;;1.75;;
74177;SDS011;62540;48.456;-4.456;2024-02-28T07:31:15;1.75;;;1.50;;
74177;SDS011;62540;48.456;-4.456;2024-02-28T07:33:41;3.00;;;1.75;;
74177;SDS011;62540;48.456;-4.456;2024-02-28T07:36:06;2.50;;;1.00;;
74177;SDS011;62540;48.456;-4.456;2024-02-28T07:38:32;2.25;;;1.75;;
74177;SDS011;62540;48.456;-4.456;2024-02-28T07:40:57;1.75;;;1.75;;
74177;SDS011;62540;48.456;-4.456;2024-02-28T07:43:23;2.75;;;2.75;;
74177;SDS011;62540;48.456;-4.456;2024-02-28T07:45:48;2.00;;;2.00;;
74177;SDS011;62540;48.456;-4.456;2024-02-28T07:48:14;5.50;;;5.00;;
74177;SDS011;62540;48.456;-4.456;2024-02-28T07:50:39;5.75;;;4.00;;
74177;SDS011;62540;48.456;-4.456;2024-02-28T07:53:06;3.00;;;3.00;;
74177;SDS011;62540;48.456;-4.456;2024-02-28T07:55:32;2.50;;;2.00;;
74177;SDS011;62540;48.456;-4.456;2024-02-28T07:57:58;2.25;;;2.25;;
74177;SDS011;62540;48.456;-4.456;2024-02-28T08:00:23;4.25;;;4.25;;
74177;SDS011;62540;48.456;-4.456;2024-02-28T08:02:50;5.75;;;5.50;;
74177;SDS011;62540;48.456;-4.456;2024-02-28T08:05:15;4.75;;;3.50;;
74177;SDS011;62540;48.456;-4.456;2024-02-28T08:07:41;4.00;;;4.00;;
74177;SDS011;62540;48.456;-4.456;2024-02-28T08:10:07;3.00;;;2.75;;
74177;SDS011;62540;48.456;-4.456;2024-02-28T08:12:35;5.75;;;5.25;;
74177;SDS011;62540;48.456;-4.456;2024-02-28T08:15:00;10.00;;;7.75;;
74177;SDS011;62540;48.456;-4.456;2024-02-28T08:17:26;9.50;;;8.75;;
74177;SDS011;62540;48.456;-4.456;2024-02-28T08:19:51;13.50;;;10.50;;
74177;SDS011;62540;48.456;-4.456;2024-02-28T08:22:16;11.75;;;11.25;;
74177;SDS011;62540;48.456;-4.456;2024-02-28T08:24:42;10.50;;;9.75;;
74177;SDS011;62540;48.456;-4.456;2024-02-28T08:27:07;11.25;;;10.00;;
74177;SDS011;62540;48.456;-4.456;2024-02-28T08:29:33;9.75;;;8.25;;
74177;SDS011;62540;48.456;-4.456;2024-02-28T08:32:00;9.50;;;8.50;;
74177;SDS011;62540;48.456;-4.456;2024-02-28T08:34:26;9.25;;;8.50;;
74177;SDS011;62540;48.456;-4.456;2024-02-28T08:36:51;10.00;;;9.00;;
74177;SDS011;62540;48.456;-4.456;2024-02-28T08:39:17;7.75;;;6.50;;
74177;SDS011;62540;48.456;-4.456;2024-02-28T08:41:42;8.25;;;7.50;;
74177;SDS011;62540;48.456;-4.456;2024-02-28T08:44:08;7.50;;;7.50;;
74177;SDS011;62540;48.456;-4.456;2024-02-28T08:46:33;9.75;;;7.50;;
74177;SDS011;62540;48.456;-4.456;2024-02-28T08:48:59;7.25;;;6.75;;
74177;SDS011;62540;48.456;-4.456;2024-02-28T08:51:24;6.00;;;6.00;;
74177;SDS011;62540;48.456;-4.456;2024-02-28T08:53:50;3.75;;;3.75;;
74177;SDS011;62540;48.456;-4.456;2024-02-28T08:56:17;3.00;;;3.00;;
74177;SDS011;62540;48.456;-4.456;2024-02-28T08:58:42;4.00;;;4.00;;
74177;SDS011;62540;48.456;-4.456;2024-02-28T09:01:12;3.75;;;3.25;;
74177;SDS011;62540;48.456;-4.456;2024-02-28T09:03:39;7.50;;;4.50;;
74177;SDS011;62540;48.456;-4.456;2024-02-28T09:06:04;3.00;;;3.00;;
74177;SDS011;62540;48.456;-4.456;2024-02-28T09:08:30;3.00;;;2.50;;
74177;SDS011;62540;48.456;-4.456;2024-02-28T09:10:55;2.00;;;2.00;;
74177;SDS011;62540;48.456;-4.456;2024-02-28T09:13:21;2.00;;;2.00;;
74177;SDS011;62540;48.456;-4.456;2024-02-28T09:15:46;3.50;;;2.75;;
74177;SDS011;62540;48.456;-4.456;2024-02-28T09:18:11;2.25;;;2.25;;
74177;SDS011;62540;48.456;-4.456;2024-02-28T09:20:37;2.25;;;2.25;;
74177;SDS011;62540;48.456;-4.456;2024-02-28T09:23:02;0.75;;;0.75;;
74177;SDS011;62540;48.456;-4.456;2024-02-28T09:25:28;2.00;;;2.00;;
74177;SDS011;62540;48.456;-4.456;2024-02-28T09:27:55;1.00;;;1.00;;
74177;SDS011;62540;48.456;-4.456;2024-02-28T09:30:22;1.25;;;1.25;;
74177;SDS011;62540;48.456;-4.456;2024-02-28T09:32:47;1.75;;;1.00;;
74177;SDS011;62540;48.456;-4.456;2024-02-28T09:35:13;1.00;;;0.00;;
74177;SDS011;62540;48.456;-4.456;2024-02-28T09:37:39;1.00;;;0.50;;
74177;SDS011;62540;48.456;-4.456;2024-02-28T09:40:04;1.00;;;1.00;;
74177;SDS011;62540;48.456;-4.456;2024-02-28T09:42:33;1.00;;;1.00;;
74177;SDS011;62540;48.456;-4.456;2024-02-28T09:45:00;2.00;;;1.25;;
74177;SDS011;62540;48.456;-4.456;2024-02-28T09:47:28;0.00;;;0.00;;
74177;SDS011;62540;48.456;-4.456;2024-02-28T09:49:54;0.00;;;0.00;;
74177;SDS011;62540;48.456;-4.456;2024-02-28T09:52:23;4.00;;;2.50;;
74177;SDS011;62540;48.456;-4.456;2024-02-28T09:54:49;2.25;;;2.25;;
74177;SDS011;62540;48.456;-4.456;2024-02-28T09:57:15;1.50;;;1.50;;
74177;SDS011;62540;48.456;-4.456;2024-02-28T09:59:41;2.00;;;2.00;;
74177;SDS011;62540;48.456;-4.456;2024-02-28T10:02:07;2.00;;;1.25;;
74177;SDS011;62540;48.456;-4.456;2024-02-28T10:04:36;2.75;;;2.00;;
74177;SDS011;62540;48.456;-4.456;2024-02-28T10:07:12;1.00;;;1.00;;
74177;SDS011;62540;48.456;-4.456;2024-02-28T10:09:38;1.00;;;1.00;;
74177;SDS011;62540;48.456;-4.456;2024-02-28T10:12:04;1.00;;;1.00;;
74177;SDS011;62540;48.456;-4.456;2024-02-28T10:14:30;1.00;;;0.50;;
74177;SDS011;62540;48.456;-4.456;2024-02-28T10:16:55;0.25;;;0.25;;
74177;SDS011;62540;48.456;-4.456;2024-02-28T10:19:21;1.00;;;0.75;;
74177;SDS011;62540;48.456;-4.456;2024-02-28T10:21:46;0.00;;;0.00;;
74177;SDS011;62540;48.456;-4.456;2024-02-28T10:24:12;1.00;;;0.50;;
74177;SDS011;62540;48.456;-4.456;2024-02-28T10:26:46;1.00;;;1.00;;
74177;SDS011;62540;48.456;-4.456;2024-02-28T10:29:24;1.50;;;0.25;;
74177;SDS011;62540;48.456;-4.456;2024-02-28T10:31:50;0.25;;;0.25;;
74177;SDS011;62540;48.456;-4.456;2024-02-28T10:34:22;0.00;;;0.00;;
74177;SDS011;62540;48.456;-4.456;2024-02-28T10:36:48;0.00;;;0.00;;
74177;SDS011;62540;48.456;-4.456;2024-02-28T10:39:14;0.00;;;0.00;;
74177;SDS011;62540;48.456;-4.456;2024-02-28T10:41:40;0.00;;;0.00;;
74177;SDS011;62540;48.456;-4.456;2024-02-28T10:44:07;0.00;;;0.00;;
74177;SDS011;62540;48.456;-4.456;2024-02-28T10:46:35;0.00;;;0.00;;
74177;SDS011;62540;48.456;-4.456;2024-02-28T10:49:03;0.75;;;0.00;;
74177;SDS011;62540;48.456;-4.456;2024-02-28T10:51:29;0.00;;;0.00;;
74177;SDS011;62540;48.456;-4.456;2024-02-28T10:54:02;0.00;;;0.00;;
74177;SDS011;62540;48.456;-4.456;2024-02-28T10:56:32;0.00;;;0.00;;
74177;SDS011;62540;48.456;-4.456;2024-02-28T10:58:58;1.25;;;0.00;;
74177;SDS011;62540;48.456;-4.456;2024-02-28T11:01:24;0.00;;;0.00;;
74177;SDS011;62540;48.456;-4.456;2024-02-28T11:03:50;0.25;;;0.00;;
74177;SDS011;62540;48.456;-4.456;2024-02-28T11:06:21;0.75;;;0.75;;
74177;SDS011;62540;48.456;-4.456;2024-02-28T11:08:47;1.00;;;1.00;;
74177;SDS011;62540;48.456;-4.456;2024-02-28T11:11:21;2.00;;;1.00;;
74177;SDS011;62540;48.456;-4.456;2024-02-28T11:13:54;1.00;;;1.00;;
74177;SDS011;62540;48.456;-4.456;2024-02-28T11:16:30;2.25;;;1.75;;
74177;SDS011;62540;48.456;-4.456;2024-02-28T11:18:56;6.75;;;4.75;;
74177;SDS011;62540;48.456;-4.456;2024-02-28T11:21:22;3.50;;;2.75;;
74177;SDS011;62540;48.456;-4.456;2024-02-28T11:23:50;3.25;;;2.00;;
74177;SDS011;62540;48.456;-4.456;2024-02-28T11:26:16;1.25;;;1.25;;
74177;SDS011;62540;48.456;-4.456;2024-02-28T11:28:43;2.00;;;1.00;;
74177;SDS011;62540;48.456;-4.456;2024-02-28T11:31:08;1.00;;;1.00;;
74177;SDS011;62540;48.456;-4.456;2024-02-28T11:33:35;1.00;;;1.00;;
74177;SDS011;62540;48.456;-4.456;2024-02-28T11:36:01;2.00;;;1.50;;
74177;SDS011;62540;48.456;-4.456;2024-02-28T11:38:28;2.00;;;1.75;;
74177;SDS011;62540;48.456;-4.456;2024-02-28T11:40:54;0.00;;;0.00;;
74177;SDS011;62540;48.456;-4.456;2024-02-28T11:43:20;0.00;;;0.00;;
74177;SDS011;62540;48.456;-4.456;2024-02-28T11:45:46;1.00;;;1.00;;
74177;SDS011;62540;48.456;-4.456;2024-02-28T11:48:14;2.00;;;2.00;;
74177;SDS011;62540;48.456;-4.456;2024-02-28T11:50:41;2.50;;;1.00;;
74177;SDS011;62540;48.456;-4.456;2024-02-28T11:53:07;3.75;;;1.00;;
74177;SDS011;62540;48.456;-4.456;2024-02-28T11:55:33;1.50;;;1.50;;
74177;SDS011;62540;48.456;-4.456;2024-02-28T11:57:59;2.25;;;2.00;;
74177;SDS011;62540;48.456;-4.456;2024-02-28T12:00:25;1.75;;;1.00;;
74177;SDS011;62540;48.456;-4.456;2024-02-28T12:02:50;2.00;;;1.25;;
74177;SDS011;62540;48.456;-4.456;2024-02-28T12:05:16;2.00;;;2.00;;
74177;SDS011;62540;48.456;-4.456;2024-02-28T12:07:41;4.00;;;2.25;;
74177;SDS011;62540;48.456;-4.456;2024-02-28T12:10:08;4.00;;;2.00;;
74177;SDS011;62540;48.456;-4.456;2024-02-28T12:12:34;3.50;;;3.00;;
74177;SDS011;62540;48.456;-4.456;2024-02-28T12:15:00;1.00;;;1.00;;
74177;SDS011;62540;48.456;-4.456;2024-02-28T12:17:28;1.50;;;1.25;;
74177;SDS011;62540;48.456;-4.456;2024-02-28T12:19:54;2.25;;;2.00;;
74177;SDS011;62540;48.456;-4.456;2024-02-28T12:22:20;3.00;;;2.50;;
74177;SDS011;62540;48.456;-4.456;2024-02-28T12:24:45;5.25;;;3.00;;
74177;SDS011;62540;48.456;-4.456;2024-02-28T12:27:11;2.00;;;2.00;;
74177;SDS011;62540;48.456;-4.456;2024-02-28T12:29:36;3.00;;;2.00;;
74177;SDS011;62540;48.456;-4.456;2024-02-28T12:32:02;3.00;;;2.25;;
74177;SDS011;62540;48.456;-4.456;2024-02-28T12:34:27;4.00;;;2.00;;
74177;SDS011;62540;48.456;-4.456;2024-02-28T12:36:53;1.50;;;1.50;;
74177;SDS011;62540;48.456;-4.456;2024-02-28T12:39:19;1.75;;;1.75;;
74177;SDS011;62540;48.456;-4.456;2024-02-28T12:41:44;3.00;;;2.00;;
74177;SDS011;62540;48.456;-4.456;2024-02-28T12:44:10;2.75;;;2.75;;
74177;SDS011;62540;48.456;-4.456;2024-02-28T12:46:35;1.00;;;1.00;;
74177;SDS011;62540;48.456;-4.456;2024-02-28T12:49:01;1.00;;;1.00;;
74177;SDS011;62540;48.456;-4.456;2024-02-28T12:54:06;1.25;;;1.25;;
74177;SDS011;62540;48.456;-4.456;2024-02-28T12:56:35;1.75;;;1.75;;
74177;SDS011;62540;48.456;-4.456;2024-02-28T12:59:01;2.00;;;2.00;;
74177;SDS011;62540;48.456;-4.456;2024-02-28T13:01:27;2.75;;;2.00;;
74177;SDS011;62540;48.456;-4.456;2024-02-28T13:03:53;3.25;;;2.25;;
74177;SDS011;62540;48.456;-4.456;2024-02-28T13:06:19;3.25;;;2.75;;
74177;SDS011;62540;48.456;-4.456;2024-02-28T13:08:44;1.50;;;1.00;;
74177;SDS011;62540;48.456;-4.456;2024-02-28T13:11:10;2.00;;;1.00;;
74177;SDS011;62540;48.456;-4.456;2024-02-28T13:13:36;2.00;;;2.00;;
74177;SDS011;62540;48.456;-4.456;2024-02-28T13:16:02;3.00;;;2.00;;
74177;SDS011;62540;48.456;-4.456;2024-02-28T13:18:27;5.00;;;4.00;;
74177;SDS011;62540;48.456;-4.456;2024-02-28T13:20:53;2.50;;;2.00;;
74177;SDS011;62540;48.456;-4.456;2024-02-28T13:23:18;2.75;;;2.75;;
74177;SDS011;62540;48.456;-4.456;2024-02-28T13:25:44;2.75;;;2.00;;
74177;SDS011;62540;48.456;-4.456;2024-02-28T13:28:09;3.75;;;2.75;;
74177;SDS011;62540;48.456;-4.456;2024-02-28T13:30:35;3.50;;;3.00;;
74177;SDS011;62540;48.456;-4.456;2024-02-28T13:33:02;3.75;;;3.75;;
74177;SDS011;62540;48.456;-4.456;2024-02-28T13:35:28;4.00;;;3.00;;
74177;SDS011;62540;48.456;-4.456;2024-02-28T13:37:55;2.25;;;2.00;;
74177;SDS011;62540;48.456;-4.456;2024-02-28T13:40:24;3.25;;;2.75;;
74177;SDS011;62540;48.456;-4.456;2024-02-28T13:42:50;3.00;;;2.25;;
74177;SDS011;62540;48.456;-4.456;2024-02-28T13:45:15;3.50;;;2.75;;
74177;SDS011;62540;48.456;-4.456;2024-02-28T13:47:41;2.50;;;2.50;;
74177;SDS011;62540;48.456;-4.456;2024-02-28T13:50:06;3.25;;;2.00;;
74177;SDS011;62540;48.456;-4.456;2024-02-28T13:52:34;4.25;;;2.25;;
74177;SDS011;62540;48.456;-4.456;2024-02-28T13:55:00;2.25;;;1.75;;
74177;SDS011;62540;48.456;-4.456;2024-02-28T13:57:25;1.00;;;1.00;;
74177;SDS011;62540;48.456;-4.456;2024-02-28T13:59:50;1.75;;;1.25;;
74177;SDS011;62540;48.456;-4.456;2024-02-28T14:02:19;2.50;;;1.25;;
74177;SDS011;62540;48.456;-4.456;2024-02-28T14:04:46;2.00;;;1.00;;
74177;SDS011;62540;48.456;-4.456;2024-02-28T14:07:13;1.25;;;1.25;;
74177;SDS011;62540;48.456;-4.456;2024-02-28T14:09:41;1.00;;;0.00;;
74177;SDS011;62540;48.456;-4.456;2024-02-28T14:12:07;1.00;;;1.00;;
74177;SDS011;62540;48.456;-4.456;2024-02-28T14:14:32;1.50;;;1.50;;
74177;SDS011;62540;48.456;-4.456;2024-02-28T14:16:58;1.75;;;1.25;;
74177;SDS011;62540;48.456;-4.456;2024-02-28T14:19:23;1.75;;;0.75;;
74177;SDS011;62540;48.456;-4.456;2024-02-28T14:21:49;1.00;;;0.75;;
74177;SDS011;62540;48.456;-4.456;2024-02-28T14:24:14;2.00;;;0.75;;
74177;SDS011;62540;48.456;-4.456;2024-02-28T14:26:43;2.00;;;2.00;;
74177;SDS011;62540;48.456;-4.456;2024-02-28T14:29:10;2.75;;;1.25;;
74177;SDS011;62540;48.456;-4.456;2024-02-28T14:31:36;1.00;;;1.00;;